Hauptseite
METAR-TAF:

METAR-TAF

Flughäfen :

Flughafen Nakhon Phanom

Nakhon Phanom, Thailand

Breite: 17-23-02N, Länge: 104-38-35E, Höhe: 179 m

Beobachtung

Neuester Wetterbericht von vor 14 Minuten, um 10:00 UTC
Wind 3 kt aus Nord/Nordwest, variierte zwischen West/Nordwest und Nord
Temperatur 33°C
Luftfeuchtigkeit 49%
Luftdruck 1009 hPa
Sichtweite 10 km oder mehr
Leicht bewölkt in der Höhe von 3500 ft

METAR: VTUW 161000Z 33003KT 290V010 9999 FEW035 33/21 Q1009 NOSIG

Zeit: 17:14 (10:14 UTC)

Prognose

Neuester Wetterbericht von vor 5 Stunden und 14 Minuten, um 05:00 UTC
Gültige Prognose vom 16 um 06 UTC bis 17 um 06 UTC
Wind 5 kt aus Ost/Südost
Sichtweite 10 km oder mehr
Leicht bewölkt in der Höhe von 3000 ft
Aufgelockert bewölkt in der Höhe von 10000 ft

TAF: VTUW 160500Z 1606/1706 11005KT 9999 FEW030 SCT100

Wetterbeobachtungen und Prognosen von mehr als 4000 Flughäfen (METAR und TAF Bericht).

Die verfügbaren Stationen werden durch gelbe und rote Markierungen auf der Karte dargestellt.

Führen Sie die Maus auf sie, um den Namen der Station zu sehen.

Darauf klicken, um die Beobachtung von Wetterbeobachtungen und Prognosen zu sehen.

Um die Karte zu ändern : klicken Sie auf den grünen Tasten mit einem schwarzen Kreuz Zum Vergrößern, auf den grünen Button mit einem Gedankenstrich zu verkleinern, oder auf die grünen Pfeile für benachbarte Karten.


METAR-TAF: